CYSM

Fort Smith Airport

Fort Smith, Northwest Territories, Canada
METAR CYSM 250000Z 27014G20KT 15SM FEW018 SCT050 BKN095 BKN250 07/02 A2981 RMK SF1SC3AC4CI1 SF TR CI TR SLP107
Observed Flight Rules
Apr-25 @ 00:00 UTC (50 minutes ago) Visual Flight Rules
Wind Visibility Clouds
270° at 14 knots
 Gusting to 20 knots
15 miles
  • Few at 1,800' AGL
  • Scattered at 5,000' AGL
  • Broken at 9,500' AGL
  • Broken at 25,000' AGL
Temperatures Readings
Current 7°C / 45°F
Dewpoint 2°C / 36°F
Humidity 71%
Altimeter 29.81" Hg
Pressure 1010.7 hPa
Elevation 203
METAR CYSM 250000Z 27014G20KT 15SM FEW018 SCT050 BKN095 BKN250 07/02 A2981 RMK SF1SC3AC4CI1 SF TR CI TR SLP107
Observed Flight Rules
Apr-25 @ 00:00 UTC
(50 minutes ago)
VFR
Wind Visibility
270° at 14 knots
 Gusting to 20 knots
15 miles
Clouds
  • Few at 1,800' AGL
  • Scattered at 5,000' AGL
  • Broken at 9,500' AGL
  • Broken at 25,000' AGL
Temperature Dewpoint
7°C / 45°F 2°C / 36°F
Humidity Altimeter Pressure
71% 29.81" Hg 1010.7 hPa